createdAt,value
2022-08-24T00:03:47.055Z,22.1
2022-08-24T00:09:21.930Z,22.1
2022-08-24T00:14:57.068Z,22
2022-08-24T00:20:31.738Z,22
2022-08-24T00:26:07.887Z,22
2022-08-24T00:31:43.641Z,21.9
2022-08-24T00:37:19.513Z,21.9
2022-08-24T00:43:18.614Z,21.8
2022-08-24T00:48:52.198Z,21.8
2022-08-24T00:54:27.927Z,21.7
2022-08-24T01:00:03.658Z,21.7
2022-08-24T01:05:38.558Z,21.6
2022-08-24T01:11:22.417Z,21.6
2022-08-24T01:16:57.520Z,21.5
2022-08-24T01:22:33.210Z,21.5
2022-08-24T01:28:08.056Z,21.4
2022-08-24T01:33:42.655Z,21.4
2022-08-24T01:39:17.548Z,21.3
2022-08-24T01:45:14.160Z,21.3
2022-08-24T01:50:46.948Z,21.3
2022-08-24T01:56:21.734Z,21.2
2022-08-24T02:01:59.614Z,21.2
2022-08-24T02:07:35.080Z,21.1
2022-08-24T02:13:09.854Z,21.1
2022-08-24T02:18:44.782Z,21.1
2022-08-24T02:24:19.486Z,21.1
2022-08-24T02:29:54.241Z,21
2022-08-24T02:35:29.337Z,21
2022-08-24T02:41:03.884Z,21
2022-08-24T02:46:38.838Z,20.9
2022-08-24T02:52:14.542Z,20.9
2022-08-24T02:57:49.414Z,20.8
2022-08-24T03:03:24.155Z,20.8
2022-08-24T03:09:03.932Z,20.8
2022-08-24T03:14:38.766Z,20.7
2022-08-24T03:20:13.560Z,20.7
2022-08-24T03:25:48.241Z,20.7
2022-08-24T03:31:43.846Z,20.6
2022-08-24T03:37:18.518Z,20.6
2022-08-24T03:43:15.909Z,20.6
2022-08-24T03:48:48.557Z,20.5
2022-08-24T03:54:23.258Z,20.5
2022-08-24T04:00:01.192Z,20.5
2022-08-24T04:05:36.951Z,20.4
2022-08-24T04:11:14.745Z,20.4
2022-08-24T04:16:52.744Z,20.4
2022-08-24T04:22:33.632Z,20.3
2022-08-24T04:28:16.439Z,20.3
2022-08-24T04:33:52.280Z,20.3
2022-08-24T04:39:29.198Z,20.3
2022-08-24T04:45:26.950Z,20.3
2022-08-24T04:51:00.508Z,20.2
2022-08-24T04:56:35.010Z,20.2
2022-08-24T05:02:10.104Z,20.2
2022-08-24T05:07:45.920Z,20.1
2022-08-24T05:13:22.194Z,20.1
2022-08-24T05:18:56.864Z,20.1
2022-08-24T05:24:31.579Z,20.1
2022-08-24T05:30:13.294Z,20.1
2022-08-24T05:35:48.010Z,20.1
2022-08-24T05:41:23.073Z,20.1
2022-08-24T05:46:58.009Z,20
2022-08-24T05:52:35.019Z,20
2022-08-24T05:58:10.913Z,19.5
2022-08-24T06:04:06.407Z,19.4
2022-08-24T06:09:42.130Z,19.3
2022-08-24T06:15:16.980Z,19.3
2022-08-24T06:20:51.696Z,19.3
2022-08-24T06:26:32.778Z,19.3
2022-08-24T06:32:08.560Z,19.5
2022-08-24T06:37:44.640Z,19.6
2022-08-24T06:43:42.952Z,19.7
2022-08-24T06:49:15.568Z,19.9
2022-08-24T06:54:50.493Z,20.1
2022-08-24T07:00:25.424Z,20.3
2022-08-24T07:06:00.460Z,20.5
2022-08-24T07:11:35.268Z,20.6
2022-08-24T07:17:11.496Z,20.8
2022-08-24T07:22:51.878Z,21
2022-08-24T07:28:27.639Z,21.2
2022-08-24T07:34:07.405Z,21.5
2022-08-24T07:39:42.461Z,21.6
2022-08-24T07:45:18.235Z,21.8
2022-08-24T07:50:52.922Z,21.2
2022-08-24T07:56:27.762Z,21.1
2022-08-24T08:02:10.497Z,21.1
2022-08-24T08:07:51.562Z,21.2
2022-08-24T08:13:27.675Z,21.3
2022-08-24T08:19:11.455Z,21.4
2022-08-24T08:24:47.089Z,21.5
2022-08-24T08:30:22.881Z,21.6
2022-08-24T08:35:57.962Z,21.7
2022-08-24T08:41:32.952Z,21.8
2022-08-24T08:47:14.810Z,21.9
2022-08-24T08:52:49.569Z,22
2022-08-24T08:58:29.399Z,22.1
2022-08-24T09:04:04.968Z,22.2
2022-08-24T09:09:40.997Z,22.3
2022-08-24T09:15:15.982Z,22.4
2022-08-24T09:20:51.058Z,22.5
2022-08-24T09:26:25.913Z,22.6
2022-08-24T09:32:00.989Z,22.7
2022-08-24T09:37:36.792Z,22.8
2022-08-24T09:43:40.469Z,23
2022-08-24T09:49:14.354Z,23
2022-08-24T09:54:49.269Z,23.1
2022-08-24T10:00:54.472Z,23.3
2022-08-24T10:06:35.813Z,23.4
2022-08-24T10:12:11.255Z,23.5
2022-08-24T10:17:46.707Z,23.6
2022-08-24T10:23:24.836Z,23.7
2022-08-24T10:28:59.739Z,23.8
2022-08-24T10:34:34.338Z,23.9
2022-08-24T10:40:09.486Z,24
2022-08-24T10:45:46.750Z,24.1
2022-08-24T10:51:26.655Z,24.2
2022-08-24T10:57:01.557Z,24.3
2022-08-24T11:02:36.445Z,24.5
2022-08-24T11:08:12.644Z,24.6
2022-08-24T11:13:48.582Z,24.7
2022-08-24T11:19:23.193Z,24.8
2022-08-24T11:24:57.997Z,24.9
2022-08-24T11:30:33.996Z,25
2022-08-24T11:36:09.079Z,25.1
2022-08-24T11:42:18.150Z,25.3
2022-08-24T11:48:03.787Z,25.4
2022-08-24T11:53:46.424Z,25.5
2022-08-24T11:59:24.788Z,25.6
2022-08-24T12:04:59.647Z,25.7
2022-08-24T12:10:43.238Z,25.8
2022-08-24T12:16:21.030Z,26
2022-08-24T12:21:57.708Z,26.1
2022-08-24T12:27:32.643Z,26.2
2022-08-24T12:33:07.534Z,26.3
2022-08-24T12:38:44.027Z,26.5
2022-08-24T12:44:19.935Z,26.8
2022-08-24T12:49:54.608Z,27.1
2022-08-24T12:55:29.892Z,27.5
2022-08-24T13:01:10.144Z,27.8
2022-08-24T13:06:46.807Z,28.1
2022-08-24T13:12:24.249Z,28.3
2022-08-24T13:18:07.457Z,28.6
2022-08-24T13:23:47.171Z,28.9
2022-08-24T13:29:22.187Z,29.1
2022-08-24T13:34:57.239Z,29.4
2022-08-24T13:40:32.252Z,29.7
2022-08-24T13:46:13.053Z,30
2022-08-24T13:51:51.301Z,30.3
2022-08-24T13:57:26.324Z,30.6
2022-08-24T14:03:02.219Z,30.5
2022-08-24T14:08:39.678Z,30.4
2022-08-24T14:14:14.561Z,30.3
2022-08-24T14:19:58.304Z,30.1
2022-08-24T14:25:33.358Z,30
2022-08-24T14:31:08.227Z,29.9
2022-08-24T14:36:43.992Z,29.9
2022-08-24T14:42:40.556Z,29.8
2022-08-24T14:48:14.371Z,29.7
2022-08-24T14:53:50.301Z,29.7
2022-08-24T14:59:25.431Z,29.7
2022-08-24T15:05:00.355Z,29.6
2022-08-24T15:10:36.955Z,29.6
2022-08-24T15:16:12.407Z,29.6
2022-08-24T15:21:48.282Z,29.7
2022-08-24T15:27:23.504Z,29.6
2022-08-24T15:32:57.991Z,29.6
2022-08-24T15:38:32.839Z,29.7
2022-08-24T15:44:29.614Z,29.6
2022-08-24T15:50:02.541Z,29.5
2022-08-24T15:55:38.529Z,29.4
2022-08-24T16:01:14.276Z,29.4
2022-08-24T16:06:51.135Z,29.3
2022-08-24T16:12:31.951Z,29.2
2022-08-24T16:18:08.602Z,29.1
2022-08-24T16:23:44.312Z,29.1
2022-08-24T16:29:21.876Z,29
2022-08-24T16:35:07.329Z,28.9
2022-08-24T16:41:09.466Z,28.8
2022-08-24T16:46:47.243Z,28.7
2022-08-24T16:52:25.346Z,28.6
2022-08-24T16:58:01.229Z,28.5
2022-08-24T17:03:38.159Z,28.4
2022-08-24T17:09:13.509Z,28.3
2022-08-24T17:14:48.306Z,28.3
2022-08-24T17:20:23.212Z,28.2
2022-08-24T17:25:58.071Z,28.2
2022-08-24T17:31:32.989Z,28.1
2022-08-24T17:37:09.265Z,28
2022-08-24T17:42:51.729Z,27.9
2022-08-24T17:48:27.015Z,27.9
2022-08-24T17:54:01.771Z,27.8
2022-08-24T17:59:36.516Z,27.7
2022-08-24T18:05:11.141Z,27.6
2022-08-24T18:10:47.837Z,27.5
2022-08-24T18:16:22.882Z,27.4
2022-08-24T18:21:58.681Z,27.3
2022-08-24T18:27:33.473Z,27.2
2022-08-24T18:33:14.283Z,27.2
2022-08-24T18:38:49.224Z,27.1
2022-08-24T18:44:52.627Z,27.1
2022-08-24T18:50:26.307Z,27
2022-08-24T18:56:05.623Z,26.9
2022-08-24T19:01:48.818Z,26.8
2022-08-24T19:07:27.397Z,26.8
2022-08-24T19:13:10.646Z,26.7
2022-08-24T19:18:46.590Z,26.6
2022-08-24T19:24:23.770Z,26.6
2022-08-24T19:29:58.892Z,26.5
2022-08-24T19:35:34.569Z,26.4
2022-08-24T19:41:10.714Z,26.4
2022-08-24T19:46:56.222Z,26.4
2022-08-24T19:52:31.863Z,26.3
2022-08-24T19:58:07.024Z,26.3
2022-08-24T20:03:42.257Z,26.2
2022-08-24T20:09:19.567Z,26.2
2022-08-24T20:15:19.833Z,26.1
2022-08-24T20:21:16.420Z,26.1
2022-08-24T20:26:51.347Z,26
2022-08-24T20:32:26.180Z,26
2022-08-24T20:38:01.786Z,25.9
2022-08-24T20:43:58.339Z,25.9
2022-08-24T20:49:31.083Z,25.9
2022-08-24T20:55:06.003Z,25.9
2022-08-24T21:00:40.847Z,25.8
2022-08-24T21:06:25.238Z,25.8
2022-08-24T21:12:00.097Z,25.7
2022-08-24T21:17:35.307Z,25.6
2022-08-24T21:23:10.215Z,25.6
2022-08-24T21:28:48.388Z,25.5
2022-08-24T21:34:23.323Z,25.5
2022-08-24T21:40:03.640Z,25.4
2022-08-24T21:45:39.319Z,25.4
2022-08-24T21:51:14.100Z,25.3
2022-08-24T21:56:49.383Z,25.3
2022-08-24T22:02:24.527Z,25.3
2022-08-24T22:08:00.616Z,25.2
2022-08-24T22:13:35.783Z,25.2
2022-08-24T22:19:15.397Z,25.2
2022-08-24T22:24:50.526Z,25.2
2022-08-24T22:30:25.553Z,25.1
2022-08-24T22:36:00.654Z,25.1
2022-08-24T22:41:57.249Z,25
2022-08-24T22:47:30.067Z,24.9
2022-08-24T22:53:05.148Z,24.9
2022-08-24T22:58:42.459Z,24.8
2022-08-24T23:04:18.343Z,24.7
2022-08-24T23:09:53.787Z,24.7
2022-08-24T23:15:29.744Z,24.6
2022-08-24T23:21:05.344Z,24.6
2022-08-24T23:26:40.235Z,24.6
2022-08-24T23:32:17.620Z,24.5
2022-08-24T23:37:54.276Z,24.5
2022-08-24T23:43:50.802Z,24.5
2022-08-24T23:49:23.802Z,24.4
2022-08-24T23:55:00.047Z,24.4
